Time,TemperatureF,DewpointF,PressureIn,WindDirection,WindDirectionDegrees,WindSpeedMPH,WindSpeedGustMPH,Humidity,HourlyPrecipIn,Conditions,Clouds,dailyrainin,SoftwareType,DateUTC
2013-03-26 00:03:00,17.3,13.0,25.77,WSW,238,6.0,8.0,83,0.00,,,0.00,weatherlink.com 1.10,2013-03-26 06:03:00,
2013-03-26 00:18:00,15.8,12.0,25.76,SW,236,6.0,6.0,83,0.00,,,0.00,weatherlink.com 1.10,2013-03-26 06:18:00,
2013-03-26 00:33:00,16.1,12.0,25.76,SW,231,7.0,8.0,83,0.00,,,0.00,weatherlink.com 1.10,2013-03-26 06:33:00,
2013-03-26 00:48:00,15.6,12.0,25.76,SW,226,6.0,7.0,84,0.00,,,0.00,weatherlink.com 1.10,2013-03-26 06:48:00,
2013-03-26 01:03:00,15.8,12.0,25.75,WSW,240,8.0,9.0,84,0.00,,,0.00,weatherlink.com 1.10,2013-03-26 07:03:00,
2013-03-26 01:18:00,16.0,12.0,25.75,SW,228,6.0,8.0,83,0.00,,,0.00,weatherlink.com 1.10,2013-03-26 07:18:00,
2013-03-26 01:33:00,16.0,11.0,25.75,SW,223,7.0,7.0,82,0.00,,,0.00,weatherlink.com 1.10,2013-03-26 07:33:00,
2013-03-26 01:48:00,15.4,11.0,25.74,SW,233,6.0,7.0,82,0.00,,,0.00,weatherlink.com 1.10,2013-03-26 07:48:00,
2013-03-26 02:03:00,14.8,10.0,25.74,SW,226,5.0,6.0,82,0.00,,,0.00,weatherlink.com 1.10,2013-03-26 08:03:00,
2013-03-26 02:18:00,14.3,10.0,25.74,SW,233,5.0,6.0,83,0.00,,,0.00,weatherlink.com 1.10,2013-03-26 08:18:00,
2013-03-26 02:33:00,13.6,9.0,25.73,SW,229,6.0,6.0,83,0.00,,,0.00,weatherlink.com 1.10,2013-03-26 08:33:00,
2013-03-26 02:48:00,13.1,9.0,25.73,SW,218,3.0,5.0,83,0.00,,,0.00,weatherlink.com 1.10,2013-03-26 08:48:00,
2013-03-26 03:03:00,13.0,9.0,25.72,SSW,200,4.0,4.0,83,0.00,,,0.00,weatherlink.com 1.10,2013-03-26 09:03:00,
2013-03-26 03:18:00,12.9,9.0,25.72,SSW,200,4.0,6.0,83,0.00,,,0.00,weatherlink.com 1.10,2013-03-26 09:18:00,
2013-03-26 03:33:00,13.9,9.0,25.71,SSW,211,7.0,8.0,81,0.00,,,0.00,weatherlink.com 1.10,2013-03-26 09:33:00,
2013-03-26 03:48:00,13.2,8.0,25.71,SW,221,6.0,7.0,81,0.00,,,0.00,weatherlink.com 1.10,2013-03-26 09:48:00,
2013-03-26 04:03:00,12.2,8.0,25.71,SSW,205,5.0,5.0,82,0.00,,,0.00,weatherlink.com 1.10,2013-03-26 10:03:00,
2013-03-26 04:18:00,12.3,8.0,25.70,SW,214,5.0,6.0,82,0.00,,,0.00,weatherlink.com 1.10,2013-03-26 10:18:00,
2013-03-26 04:33:00,12.4,8.0,25.70,SW,226,5.0,5.0,82,0.00,,,0.00,weatherlink.com 1.10,2013-03-26 10:33:00,
2013-03-26 04:48:00,14.6,10.0,25.69,SW,232,6.0,6.0,80,0.00,,,0.00,weatherlink.com 1.10,2013-03-26 10:48:00,
2013-03-26 05:03:00,14.5,9.0,25.69,SW,229,6.0,7.0,78,0.00,,,0.00,weatherlink.com 1.10,2013-03-26 11:03:00,
2013-03-26 05:18:00,15.2,10.0,25.69,SW,235,7.0,8.0,78,0.00,,,0.00,weatherlink.com 1.10,2013-03-26 11:18:00,
2013-03-26 05:33:00,15.3,9.0,25.68,SW,235,7.0,8.0,76,0.00,,,0.00,weatherlink.com 1.10,2013-03-26 11:33:00,
2013-03-26 05:48:00,14.7,8.0,25.68,SW,219,6.0,6.0,76,0.00,,,0.00,weatherlink.com 1.10,2013-03-26 11:48:00,
2013-03-26 06:03:00,14.5,9.0,25.68,SW,226,8.0,8.0,78,0.00,,,0.00,weatherlink.com 1.10,2013-03-26 12:03:00,
2013-03-26 06:33:00,14.7,8.0,25.68,SW,226,7.0,9.0,76,0.00,,,0.00,weatherlink.com 1.10,2013-03-26 12:33:00,
2013-03-26 06:49:00,13.7,8.0,25.67,SW,226,8.0,9.0,78,0.00,,,0.00,weatherlink.com 1.10,2013-03-26 12:49:00,
2013-03-26 07:04:00,15.4,9.0,25.67,SW,219,6.0,8.0,76,0.00,,,0.00,weatherlink.com 1.10,2013-03-26 13:04:00,
2013-03-26 07:19:00,15.6,10.0,25.67,SW,226,5.0,6.0,78,0.00,,,0.00,weatherlink.com 1.10,2013-03-26 13:19:00,
2013-03-26 07:34:00,18.1,12.0,25.67,SW,225,9.0,10.0,77,0.00,,,0.00,weatherlink.com 1.10,2013-03-26 13:34:00,
2013-03-26 07:49:00,21.6,15.0,25.67,SW,229,7.0,11.0,75,0.00,,,0.00,weatherlink.com 1.10,2013-03-26 13:49:00,
2013-03-26 08:04:00,23.4,15.0,25.66,SW,222,10.0,12.0,71,0.00,,,0.00,weatherlink.com 1.10,2013-03-26 14:04:00,
2013-03-26 08:19:00,24.0,16.0,25.65,SW,221,14.0,14.0,72,0.00,,,0.00,weatherlink.com 1.10,2013-03-26 14:19:00,
2013-03-26 08:34:00,26.3,17.0,25.65,SW,226,12.0,14.0,67,0.00,,,0.00,weatherlink.com 1.10,2013-03-26 14:34:00,
2013-03-26 08:49:00,27.4,17.0,25.64,SW,214,10.0,14.0,65,0.00,,,0.00,weatherlink.com 1.10,2013-03-26 14:49:00,
2013-03-26 09:04:00,29.2,18.0,25.64,SW,219,13.0,16.0,64,0.00,,,0.00,weatherlink.com 1.10,2013-03-26 15:04:00,
2013-03-26 09:19:00,30.8,18.0,25.64,SW,225,13.0,17.0,60,0.00,,,0.00,weatherlink.com 1.10,2013-03-26 15:19:00,
2013-03-26 09:34:00,33.0,19.0,25.64,SSW,205,9.0,16.0,56,0.00,,,0.00,weatherlink.com 1.10,2013-03-26 15:34:00,
2013-03-26 09:49:00,34.7,19.0,25.64,SSW,201,13.0,21.0,52,0.00,,,0.00,weatherlink.com 1.10,2013-03-26 15:49:00,
2013-03-26 10:04:00,36.8,20.0,25.64,SW,231,13.0,17.0,50,0.00,,,0.00,weatherlink.com 1.10,2013-03-26 16:04:00,
2013-03-26 10:19:00,38.6,19.0,25.63,SSW,204,10.0,15.0,46,0.00,,,0.00,weatherlink.com 1.10,2013-03-26 16:19:00,
2013-03-26 10:34:00,39.6,18.0,25.62,SSW,210,10.0,15.0,41,0.00,,,0.00,weatherlink.com 1.10,2013-03-26 16:34:00,
2013-03-26 10:49:00,41.0,19.0,25.62,SSW,205,15.0,16.0,42,0.00,,,0.00,weatherlink.com 1.10,2013-03-26 16:49:00,
2013-03-26 11:05:00,42.6,17.0,25.62,SW,224,10.0,18.0,36,0.00,,,0.00,weatherlink.com 1.10,2013-03-26 17:05:00,
2013-03-26 11:20:00,42.8,17.0,25.62,SW,217,19.0,20.0,35,0.00,,,0.00,weatherlink.com 1.10,2013-03-26 17:20:00,
2013-03-26 11:35:00,43.5,17.0,25.61,SW,215,15.0,18.0,34,0.00,,,0.00,weatherlink.com 1.10,2013-03-26 17:35:00,
2013-03-26 11:50:00,44.9,19.0,25.61,SSW,203,10.0,17.0,35,0.00,,,0.00,weatherlink.com 1.10,2013-03-26 17:50:00,
2013-03-26 12:05:00,45.7,17.0,25.60,SW,224,14.0,16.0,32,0.00,,,0.00,weatherlink.com 1.10,2013-03-26 18:05:00,
2013-03-26 12:20:00,46.7,17.0,25.59,SW,222,8.0,17.0,31,0.00,,,0.00,weatherlink.com 1.10,2013-03-26 18:20:00,
2013-03-26 12:35:00,47.5,15.0,25.59,SSW,212,13.0,17.0,27,0.00,,,0.00,weatherlink.com 1.10,2013-03-26 18:35:00,
2013-03-26 12:50:00,47.6,17.0,25.58,SSW,212,17.0,17.0,30,0.00,,,0.00,weatherlink.com 1.10,2013-03-26 18:50:00,
2013-03-26 13:05:00,48.1,16.0,25.58,SW,218,6.0,17.0,28,0.00,,,0.00,weatherlink.com 1.10,2013-03-26 19:05:00,
2013-03-26 13:20:00,49.3,16.0,25.57,SSW,208,12.0,20.0,26,0.00,,,0.00,weatherlink.com 1.10,2013-03-26 19:20:00,
2013-03-26 13:35:00,50.9,13.0,25.57,SW,215,14.0,21.0,22,0.00,,,0.00,weatherlink.com 1.10,2013-03-26 19:35:00,
2013-03-26 13:50:00,49.2,14.0,25.57,SW,222,11.0,14.0,24,0.00,,,0.00,weatherlink.com 1.10,2013-03-26 19:50:00,
2013-03-26 14:05:00,50.0,14.0,25.56,WSW,255,20.0,20.0,24,0.00,,,0.00,weatherlink.com 1.10,2013-03-26 20:05:00,
2013-03-26 14:20:00,50.3,15.0,25.56,SSW,212,10.0,17.0,24,0.00,,,0.00,weatherlink.com 1.10,2013-03-26 20:20:00,
2013-03-26 14:35:00,50.9,15.0,25.55,NNE,29,3.0,10.0,24,0.00,,,0.00,weatherlink.com 1.10,2013-03-26 20:35:00,
2013-03-26 14:50:00,51.0,15.0,25.55,SW,228,9.0,19.0,24,0.00,,,0.00,weatherlink.com 1.10,2013-03-26 20:50:00,
2013-03-26 15:05:00,51.8,15.0,25.54,SSW,207,12.0,17.0,23,0.00,,,0.00,weatherlink.com 1.10,2013-03-26 21:05:00,
2013-03-26 15:20:00,52.5,18.0,25.54,SSW,207,15.0,22.0,26,0.00,,,0.00,weatherlink.com 1.10,2013-03-26 21:20:00,
2013-03-26 15:35:00,51.4,16.0,25.54,WSW,240,12.0,15.0,24,0.00,,,0.00,weatherlink.com 1.10,2013-03-26 21:35:00,
2013-03-26 15:50:00,52.1,15.0,25.54,SW,232,7.0,12.0,23,0.00,,,0.00,weatherlink.com 1.10,2013-03-26 21:50:00,
2013-03-26 16:05:00,52.1,16.0,25.54,SW,215,16.0,20.0,24,0.00,,,0.00,weatherlink.com 1.10,2013-03-26 22:05:00,
2013-03-26 16:20:00,52.2,14.0,25.54,WSW,245,12.0,18.0,22,0.00,,,0.00,weatherlink.com 1.10,2013-03-26 22:20:00,
2013-03-26 16:35:00,51.1,13.0,25.54,SW,214,18.0,22.0,22,0.00,,,0.00,weatherlink.com 1.10,2013-03-26 22:35:00,
2013-03-26 16:50:00,50.4,14.0,25.54,SSW,197,14.0,23.0,23,0.00,,,0.00,weatherlink.com 1.10,2013-03-26 22:50:00,
2013-03-26 17:05:00,49.7,13.0,25.54,SSW,204,12.0,23.0,23,0.00,,,0.00,weatherlink.com 1.10,2013-03-26 23:05:00,
2013-03-26 17:20:00,48.4,11.0,25.54,SSW,210,24.0,26.0,22,0.00,,,0.00,weatherlink.com 1.10,2013-03-26 23:20:00,
2013-03-26 17:35:00,47.5,11.0,25.55,SW,219,16.0,24.0,23,0.00,,,0.00,weatherlink.com 1.10,2013-03-26 23:35:00,
2013-03-26 17:51:00,46.7,11.0,25.56,WSW,238,15.0,25.0,24,0.00,,,0.00,weatherlink.com 1.10,2013-03-26 23:51:00,
2013-03-26 18:06:00,46.3,10.0,25.56,SW,222,20.0,28.0,23,0.00,,,0.00,weatherlink.com 1.10,2013-03-27 00:06:00,
2013-03-26 18:21:00,45.6,12.0,25.56,SSW,201,12.0,19.0,26,0.00,,,0.00,weatherlink.com 1.10,2013-03-27 00:21:00,
2013-03-26 18:36:00,44.9,13.0,25.57,SSW,207,10.0,17.0,28,0.00,,,0.00,weatherlink.com 1.10,2013-03-27 00:36:00,
2013-03-26 18:51:00,43.9,15.0,25.57,SSW,208,11.0,13.0,31,0.00,,,0.00,weatherlink.com 1.10,2013-03-27 00:51:00,
2013-03-26 19:06:00,43.0,16.0,25.57,SSW,211,7.0,11.0,33,0.00,,,0.00,weatherlink.com 1.10,2013-03-27 01:06:00,
2013-03-26 19:21:00,43.3,22.0,25.58,WSW,239,15.0,17.0,43,0.00,,,0.00,weatherlink.com 1.10,2013-03-27 01:21:00,
2013-03-26 19:36:00,42.9,31.0,25.59,WSW,248,14.0,22.0,62,0.00,,,0.00,weatherlink.com 1.10,2013-03-27 01:36:00,
2013-03-26 19:51:00,42.1,33.0,25.59,WSW,245,12.0,18.0,69,0.00,,,0.00,weatherlink.com 1.10,2013-03-27 01:51:00,
2013-03-26 20:06:00,41.5,33.0,25.59,WSW,249,10.0,14.0,71,0.00,,,0.00,weatherlink.com 1.10,2013-03-27 02:06:00,
2013-03-26 20:21:00,40.7,33.0,25.59,WSW,242,8.0,10.0,74,0.00,,,0.00,weatherlink.com 1.10,2013-03-27 02:21:00,
2013-03-26 22:06:00,35.2,31.0,25.61,WSW,257,6.0,7.0,85,0.00,,,0.00,weatherlink.com 1.10,2013-03-27 04:06:00,